createdAt,value
2019-03-27T00:03:49.543Z,10.75
2019-03-27T00:06:33.280Z,9.98
2019-03-27T00:09:17.258Z,11.28
2019-03-27T00:12:08.875Z,9.15
2019-03-27T00:14:51.571Z,10.30
2019-03-27T00:17:43.300Z,10.20
2019-03-27T00:20:28.466Z,10.63
2019-03-27T00:23:20.157Z,9.03
2019-03-27T00:26:04.551Z,10.28
2019-03-27T00:28:56.307Z,9.73
2019-03-27T00:31:29.162Z,9.55
2019-03-27T00:34:01.943Z,10.03
2019-03-27T00:36:45.767Z,9.25
2019-03-27T00:39:37.884Z,9.88
2019-03-27T00:42:22.136Z,10.10
2019-03-27T00:45:26.000Z,10.32
2019-03-27T00:48:04.999Z,10.28
2019-03-27T00:50:56.639Z,9.83
2019-03-27T00:53:40.880Z,10.25
2019-03-27T00:56:32.565Z,10.80
2019-03-27T00:59:19.211Z,11.00
2019-03-27T01:02:10.324Z,11.85
2019-03-27T01:04:55.457Z,9.75
2019-03-27T01:07:39.484Z,9.65
2019-03-27T01:10:31.329Z,10.70
2019-03-27T01:13:15.772Z,9.88
2019-03-27T01:16:07.479Z,10.28
2019-03-27T01:18:51.642Z,12.15
2019-03-27T01:21:43.270Z,10.40
2019-03-27T01:24:27.530Z,11.57
2019-03-27T01:27:19.132Z,11.50
2019-03-27T01:30:04.893Z,11.18
2019-03-27T01:32:56.518Z,10.85
2019-03-27T01:35:41.225Z,11.10
2019-03-27T01:38:32.747Z,11.43
2019-03-27T01:41:16.721Z,12.33
2019-03-27T01:44:08.458Z,11.70
2019-03-27T01:46:52.985Z,12.33
2019-03-27T01:49:44.680Z,12.13
2019-03-27T01:52:28.741Z,12.68
2019-03-27T01:55:20.378Z,11.33
2019-03-27T01:58:04.113Z,12.07
2019-03-27T02:00:55.916Z,11.75
2019-03-27T02:03:40.342Z,10.88
2019-03-27T02:06:32.271Z,11.60
2019-03-27T02:09:16.532Z,12.23
2019-03-27T02:12:00.479Z,11.68
2019-03-27T02:14:44.845Z,10.90
2019-03-27T02:17:29.689Z,10.43
2019-03-27T02:20:21.802Z,11.38
2019-03-27T02:23:05.870Z,10.95
2019-03-27T02:25:57.610Z,13.10
2019-03-27T02:28:30.551Z,12.70
2019-03-27T02:31:22.239Z,12.45
2019-03-27T02:34:06.873Z,12.20
2019-03-27T02:36:57.819Z,11.95
2019-03-27T02:39:41.796Z,13.62
2019-03-27T02:42:33.496Z,12.98
2019-03-27T02:45:17.643Z,12.15
2019-03-27T02:48:09.475Z,12.82
2019-03-27T02:50:42.699Z,13.25
2019-03-27T02:53:34.331Z,13.13
2019-03-27T02:56:18.458Z,13.08
2019-03-27T02:59:10.073Z,13.45
2019-03-27T03:01:53.861Z,12.70
2019-03-27T03:04:45.766Z,13.22
2019-03-27T03:07:30.873Z,13.38
2019-03-27T03:10:22.587Z,12.85
2019-03-27T03:13:14.323Z,14.50
2019-03-27T03:15:47.141Z,12.50
2019-03-27T03:18:38.685Z,12.50
2019-03-27T03:21:23.860Z,12.85
2019-03-27T03:24:15.769Z,13.83
2019-03-27T03:26:59.448Z,13.72
2019-03-27T03:29:51.160Z,14.00
2019-03-27T03:32:35.303Z,13.20
2019-03-27T03:35:27.850Z,15.10
2019-03-27T03:38:11.546Z,13.60
2019-03-27T03:41:04.224Z,14.43
2019-03-27T03:43:48.224Z,14.58
2019-03-27T03:46:40.065Z,13.78
2019-03-27T03:49:13.057Z,13.03
2019-03-27T03:51:57.396Z,13.30
2019-03-27T03:54:41.514Z,14.70
2019-03-27T03:57:33.284Z,15.45
2019-03-27T04:00:17.618Z,13.55
2019-03-27T04:03:09.618Z,14.00
2019-03-27T04:05:54.818Z,15.72
2019-03-27T04:08:46.568Z,15.50
2019-03-27T04:11:30.475Z,14.05
2019-03-27T04:14:22.109Z,13.68
2019-03-27T04:17:17.088Z,13.13
2019-03-27T04:23:23.677Z,12.85
2019-03-27T04:26:15.474Z,13.55
2019-03-27T04:28:59.189Z,13.88
2019-03-27T04:31:50.769Z,16.02
2019-03-27T04:34:34.997Z,14.68
2019-03-27T04:37:26.649Z,14.90
2019-03-27T04:40:10.642Z,16.35
2019-03-27T04:43:02.673Z,16.57
2019-03-27T04:45:46.984Z,15.98
2019-03-27T04:48:20.067Z,15.68
2019-03-27T04:51:03.930Z,15.50
2019-03-27T04:53:36.827Z,17.42
2019-03-27T04:56:21.419Z,16.80
2019-03-27T04:59:13.103Z,15.95
2019-03-27T05:01:46.046Z,17.07
2019-03-27T05:04:30.210Z,15.25
2019-03-27T05:07:21.975Z,15.80
2019-03-27T05:10:07.253Z,15.95
2019-03-27T05:12:58.961Z,15.68
2019-03-27T05:15:44.203Z,17.25
2019-03-27T05:18:35.965Z,16.87
2019-03-27T05:21:20.138Z,16.45
2019-03-27T05:24:11.653Z,15.35
2019-03-27T05:26:55.410Z,19.50
2019-03-27T05:29:47.093Z,16.70
2019-03-27T05:32:31.460Z,16.07
2019-03-27T05:35:23.247Z,16.85
2019-03-27T05:38:06.769Z,17.27
2019-03-27T05:40:58.383Z,17.87
2019-03-27T05:43:31.340Z,16.70
2019-03-27T05:46:22.968Z,18.37
2019-03-27T05:49:16.319Z,17.82
2019-03-27T05:52:07.947Z,16.00
2019-03-27T05:54:52.215Z,18.57
2019-03-27T05:57:43.959Z,18.37
2019-03-27T06:00:28.535Z,18.73
2019-03-27T06:03:20.171Z,17.15
2019-03-27T06:06:04.662Z,19.77
2019-03-27T06:08:48.870Z,19.57
2019-03-27T06:11:40.565Z,18.73
2019-03-27T06:14:26.288Z,18.10
2019-03-27T06:17:17.927Z,19.90
2019-03-27T06:19:50.856Z,18.23
2019-03-27T06:22:42.882Z,17.90
2019-03-27T06:25:16.682Z,18.65
2019-03-27T06:27:49.760Z,18.82
2019-03-27T06:30:34.750Z,20.97
2019-03-27T06:33:18.634Z,19.70
2019-03-27T06:36:10.602Z,17.80
2019-03-27T06:38:56.156Z,19.23
2019-03-27T06:41:47.796Z,18.12
2019-03-27T06:44:32.180Z,19.15
2019-03-27T06:47:23.881Z,22.98
2019-03-27T06:50:08.161Z,19.85
2019-03-27T06:52:59.941Z,19.82
2019-03-27T06:55:42.646Z,20.00
2019-03-27T06:58:34.301Z,20.43
2019-03-27T07:01:19.227Z,18.73
2019-03-27T07:04:11.152Z,20.97
2019-03-27T07:06:55.574Z,20.32
2019-03-27T07:09:47.236Z,19.92
2019-03-27T07:12:32.376Z,20.88
2019-03-27T07:15:15.523Z,20.65
2019-03-27T07:18:07.347Z,20.62
2019-03-27T07:20:41.192Z,19.10
2019-03-27T07:23:33.675Z,18.42
2019-03-27T07:26:06.558Z,20.97
2019-03-27T07:28:58.633Z,20.90
2019-03-27T07:31:31.783Z,18.62
2019-03-27T07:34:23.549Z,21.75
2019-03-27T07:36:56.437Z,20.27
2019-03-27T07:39:47.225Z,22.87
2019-03-27T07:42:19.899Z,21.42
2019-03-27T07:44:52.795Z,20.75
2019-03-27T07:47:25.687Z,20.10
2019-03-27T07:49:58.547Z,20.90
2019-03-27T07:52:31.516Z,21.25
2019-03-27T07:55:18.462Z,20.65
2019-03-27T07:57:39.337Z,21.10
2019-03-27T08:00:34.079Z,20.72
2019-03-27T08:03:07.001Z,20.85
2019-03-27T08:05:39.940Z,20.25
2019-03-27T08:08:12.762Z,19.20
2019-03-27T08:10:45.756Z,19.60
2019-03-27T08:13:18.678Z,22.55
2019-03-27T08:15:51.836Z,19.77
2019-03-27T08:18:25.675Z,20.57
2019-03-27T08:20:58.512Z,21.90
2019-03-27T08:23:31.155Z,19.90
2019-03-27T08:26:04.459Z,20.97
2019-03-27T08:28:37.177Z,21.00
2019-03-27T08:31:10.068Z,22.20
2019-03-27T08:33:42.976Z,21.10
2019-03-27T08:36:34.720Z,19.92
2019-03-27T08:39:19.790Z,20.77
2019-03-27T08:42:03.496Z,21.25
2019-03-27T08:44:36.149Z,19.10
2019-03-27T08:47:20.435Z,21.55
2019-03-27T08:50:04.404Z,19.42
2019-03-27T08:52:48.717Z,20.30
2019-03-27T08:55:40.320Z,20.62
2019-03-27T08:58:13.136Z,20.82
2019-03-27T09:01:04.903Z,20.82
2019-03-27T09:03:48.874Z,18.55
2019-03-27T09:06:33.997Z,19.15
2019-03-27T09:09:19.612Z,17.80
2019-03-27T09:12:11.238Z,18.80
2019-03-27T09:14:55.086Z,19.10
2019-03-27T09:17:39.870Z,17.60
2019-03-27T09:20:31.626Z,19.02
2019-03-27T09:23:16.325Z,18.75
2019-03-27T09:26:07.948Z,19.23
2019-03-27T09:28:52.595Z,17.42
2019-03-27T09:31:45.423Z,17.67
2019-03-27T09:34:35.536Z,18.45
2019-03-27T09:37:27.271Z,18.50
2019-03-27T09:40:11.502Z,17.77
2019-03-27T09:43:03.236Z,19.67
2019-03-27T09:45:47.639Z,18.15
2019-03-27T09:48:39.244Z,18.60
2019-03-27T09:51:24.089Z,18.15
2019-03-27T09:54:16.090Z,17.65
2019-03-27T09:57:00.008Z,17.30
2019-03-27T09:59:43.639Z,15.35
2019-03-27T10:02:35.595Z,17.15
2019-03-27T10:05:20.216Z,16.57
2019-03-27T10:08:11.897Z,15.32
2019-03-27T10:10:56.271Z,15.85
2019-03-27T10:13:48.064Z,14.58
2019-03-27T10:16:20.985Z,15.55
2019-03-27T10:19:12.940Z,16.50
2019-03-27T10:21:56.069Z,14.90
2019-03-27T10:27:22.069Z,10.28
2019-03-27T10:30:13.734Z,11.78
2019-03-27T10:32:58.902Z,10.65
2019-03-27T10:35:50.687Z,8.60
2019-03-27T10:38:35.527Z,9.65
2019-03-27T10:41:27.355Z,10.35
2019-03-27T10:44:11.261Z,10.10
2019-03-27T10:47:03.020Z,10.80
2019-03-27T10:49:46.716Z,10.82
2019-03-27T10:52:39.353Z,10.90
2019-03-27T10:55:25.781Z,11.75
2019-03-27T10:57:59.223Z,9.45
2019-03-27T11:00:51.199Z,10.30
2019-03-27T11:03:44.805Z,11.25
2019-03-27T11:06:17.585Z,10.15
2019-03-27T11:09:04.566Z,9.83
2019-03-27T11:11:56.471Z,10.53
2019-03-27T11:14:41.967Z,9.65
2019-03-27T11:17:34.132Z,10.40
2019-03-27T11:20:30.233Z,9.90
2019-03-27T11:22:53.326Z,10.05
2019-03-27T11:25:45.120Z,12.07
2019-03-27T11:28:32.111Z,14.95
2019-03-27T11:31:36.396Z,10.28
2019-03-27T11:34:15.007Z,10.78
2019-03-27T11:37:07.301Z,11.97
2019-03-27T11:39:40.179Z,10.63
2019-03-27T11:42:13.208Z,11.15
2019-03-27T11:44:57.930Z,10.30
2019-03-27T11:47:49.734Z,8.90
2019-03-27T11:50:22.603Z,9.25
2019-03-27T11:53:14.345Z,10.03
2019-03-27T11:55:58.785Z,9.60
2019-03-27T11:58:50.555Z,8.45
2019-03-27T12:01:23.536Z,8.53
2019-03-27T12:04:20.840Z,10.03
2019-03-27T12:07:05.047Z,8.45
2019-03-27T12:09:56.877Z,8.10
2019-03-27T12:12:40.813Z,8.70
2019-03-27T12:18:52.206Z,6.97
2019-03-27T12:21:37.270Z,8.10
2019-03-27T12:24:29.025Z,7.47
2019-03-27T12:27:13.090Z,7.67
2019-03-27T12:30:06.023Z,7.42
2019-03-27T12:32:50.513Z,6.83
2019-03-27T12:35:34.347Z,8.15
2019-03-27T12:38:26.181Z,7.42
2019-03-27T12:40:59.163Z,7.33
2019-03-27T12:43:43.122Z,7.60
2019-03-27T12:46:34.694Z,7.80
2019-03-27T12:49:19.200Z,8.10
2019-03-27T12:52:05.561Z,6.78
2019-03-27T12:54:50.139Z,7.53
2019-03-27T12:57:41.790Z,6.72
2019-03-27T13:00:26.195Z,7.20
2019-03-27T13:03:17.858Z,7.85
2019-03-27T13:06:02.305Z,7.12
2019-03-27T13:08:54.119Z,6.50
2019-03-27T13:11:26.947Z,6.50
2019-03-27T13:14:18.661Z,5.95
2019-03-27T13:16:52.406Z,6.92
2019-03-27T13:19:57.070Z,6.92
2019-03-27T13:22:48.978Z,7.15
2019-03-27T13:28:48.244Z,7.40
2019-03-27T13:31:31.507Z,6.65
2019-03-27T13:34:17.027Z,7.10
2019-03-27T13:37:36.454Z,6.45
2019-03-27T13:40:26.635Z,6.83
2019-03-27T13:43:24.447Z,7.45
2019-03-27T13:46:11.547Z,7.15
2019-03-27T13:52:10.899Z,6.37
2019-03-27T13:54:44.208Z,6.22
2019-03-27T13:57:36.052Z,6.47
2019-03-27T14:00:20.578Z,7.00
2019-03-27T14:02:53.518Z,5.58
2019-03-27T14:05:37.821Z,6.30
2019-03-27T14:08:29.753Z,5.37
2019-03-27T14:11:02.538Z,6.15
2019-03-27T14:13:35.360Z,7.08
2019-03-27T14:16:20.799Z,7.22
2019-03-27T14:19:13.608Z,6.85
2019-03-27T14:21:58.999Z,6.40
2019-03-27T14:24:43.045Z,5.83
2019-03-27T14:27:27.224Z,5.95
2019-03-27T14:30:11.766Z,6.40
2019-03-27T14:33:03.652Z,6.30
2019-03-27T14:35:48.101Z,6.78
2019-03-27T14:38:39.741Z,6.17
2019-03-27T14:41:24.618Z,6.35
2019-03-27T14:44:17.816Z,4.30
2019-03-27T14:47:02.758Z,4.10
2019-03-27T14:49:54.617Z,4.58
2019-03-27T14:52:39.815Z,4.60
2019-03-27T14:55:31.476Z,4.60
2019-03-27T14:58:16.141Z,4.58
2019-03-27T15:01:07.839Z,5.35
2019-03-27T15:03:51.686Z,4.92
2019-03-27T15:06:43.532Z,4.90
2019-03-27T15:09:27.480Z,5.35
2019-03-27T15:12:19.280Z,5.00
2019-03-27T15:15:03.494Z,5.00
2019-03-27T15:17:48.616Z,6.15
2019-03-27T15:20:40.678Z,5.67
2019-03-27T15:23:25.379Z,5.10
2019-03-27T15:26:09.380Z,5.90
2019-03-27T15:29:01.083Z,5.00
2019-03-27T15:31:44.810Z,5.60
2019-03-27T15:34:36.537Z,5.92
2019-03-27T15:37:20.369Z,7.53
2019-03-27T15:40:12.685Z,5.65
2019-03-27T15:43:18.862Z,5.00
2019-03-27T15:45:51.725Z,5.35
2019-03-27T15:48:35.754Z,4.10
2019-03-27T15:51:27.416Z,4.37
2019-03-27T15:54:12.190Z,4.62
2019-03-27T15:57:04.973Z,4.20
2019-03-27T15:59:49.648Z,4.12
2019-03-27T16:02:44.169Z,4.25
2019-03-27T16:05:29.308Z,5.97
2019-03-27T16:08:21.313Z,3.92
2019-03-27T16:10:54.376Z,4.00
2019-03-27T16:13:46.118Z,5.05
2019-03-27T16:16:30.059Z,4.35
2019-03-27T16:19:03.177Z,4.67
2019-03-27T16:21:47.378Z,5.45
2019-03-27T16:24:39.007Z,4.72
2019-03-27T16:27:23.031Z,4.67
2019-03-27T16:29:55.960Z,4.00
2019-03-27T16:32:40.392Z,4.90
2019-03-27T16:35:24.615Z,4.05
2019-03-27T16:38:16.709Z,4.10
2019-03-27T16:40:50.324Z,3.87
2019-03-27T16:43:35.162Z,7.05
2019-03-27T16:46:08.756Z,3.95
2019-03-27T16:48:52.946Z,3.62
2019-03-27T16:51:57.312Z,3.70
2019-03-27T16:54:36.103Z,2.95
2019-03-27T16:57:27.834Z,3.27
2019-03-27T17:00:00.595Z,3.58
2019-03-27T17:02:33.630Z,4.00
2019-03-27T17:05:17.452Z,4.08
2019-03-27T17:08:09.501Z,3.20
2019-03-27T17:10:53.282Z,3.95
2019-03-27T17:13:45.045Z,2.92
2019-03-27T17:16:29.661Z,3.90
2019-03-27T17:19:13.417Z,3.42
2019-03-27T17:21:58.676Z,3.12
2019-03-27T17:24:31.574Z,3.83
2019-03-27T17:27:04.562Z,3.45
2019-03-27T17:29:56.513Z,3.22
2019-03-27T17:32:41.905Z,3.72
2019-03-27T17:38:17.792Z,3.65
2019-03-27T17:41:02.470Z,3.75
2019-03-27T17:43:35.816Z,4.17
2019-03-27T17:46:09.088Z,4.60
2019-03-27T17:49:01.354Z,4.40
2019-03-27T17:51:45.829Z,5.05
2019-03-27T17:54:37.487Z,4.53
2019-03-27T17:57:22.144Z,3.83
2019-03-27T18:00:08.545Z,3.92
2019-03-27T18:03:00.377Z,4.70
2019-03-27T18:05:44.246Z,4.60
2019-03-27T18:08:17.405Z,4.05
2019-03-27T18:11:04.172Z,4.30
2019-03-27T18:13:55.793Z,4.30
2019-03-27T18:16:37.692Z,4.10
2019-03-27T18:19:21.972Z,4.37
2019-03-27T18:22:13.710Z,4.10
2019-03-27T18:24:57.619Z,4.80
2019-03-27T18:27:50.139Z,4.10
2019-03-27T18:30:35.231Z,4.42
2019-03-27T18:33:19.262Z,4.83
2019-03-27T18:36:10.965Z,4.50
2019-03-27T18:38:55.214Z,5.05
2019-03-27T18:41:38.996Z,4.37
2019-03-27T18:44:30.733Z,4.97
2019-03-27T18:47:15.004Z,4.08
2019-03-27T18:50:07.118Z,4.03
2019-03-27T18:52:50.970Z,4.60
2019-03-27T18:55:42.568Z,4.70
2019-03-27T18:58:26.433Z,4.78
2019-03-27T19:01:18.179Z,4.72
2019-03-27T19:04:03.357Z,5.05
2019-03-27T19:06:58.469Z,4.75
2019-03-27T19:09:58.603Z,5.75
2019-03-27T19:12:50.226Z,5.17
2019-03-27T19:15:33.857Z,5.75
2019-03-27T19:18:25.432Z,7.47
2019-03-27T19:21:09.587Z,5.25
2019-03-27T19:24:13.175Z,5.05
2019-03-27T19:27:06.071Z,4.67
2019-03-27T19:29:57.837Z,4.75
2019-03-27T19:32:42.286Z,4.62
2019-03-27T19:35:33.985Z,4.75
2019-03-27T19:38:17.886Z,6.12
2019-03-27T19:41:09.669Z,6.10
2019-03-27T19:43:54.002Z,4.80
2019-03-27T19:46:45.761Z,5.22
2019-03-27T19:49:29.853Z,4.87
2019-03-27T19:52:21.651Z,5.17
2019-03-27T19:55:06.892Z,5.00
2019-03-27T19:57:58.768Z,4.90
2019-03-27T20:00:42.626Z,4.72
2019-03-27T20:03:34.891Z,4.80
2019-03-27T20:06:39.616Z,4.53
2019-03-27T20:09:31.255Z,4.97
2019-03-27T20:12:15.743Z,4.58
2019-03-27T20:14:48.637Z,4.42
2019-03-27T20:17:32.379Z,6.08
2019-03-27T20:20:24.108Z,6.10
2019-03-27T20:23:14.955Z,6.12
2019-03-27T20:26:01.919Z,5.20
2019-03-27T20:28:46.309Z,5.40
2019-03-27T20:31:38.016Z,5.35
2019-03-27T20:34:22.963Z,4.92
2019-03-27T20:37:14.592Z,5.45
2019-03-27T20:39:47.226Z,5.67
2019-03-27T20:42:38.893Z,6.45
2019-03-27T20:45:23.971Z,5.45
2019-03-27T20:48:15.692Z,5.45
2019-03-27T20:51:00.269Z,5.90
2019-03-27T20:53:52.083Z,6.05
2019-03-27T20:56:36.489Z,6.95
2019-03-27T20:59:28.281Z,6.05
2019-03-27T21:02:12.513Z,6.40
2019-03-27T21:05:04.314Z,6.15
2019-03-27T21:07:48.803Z,7.20
2019-03-27T21:10:40.553Z,6.33
2019-03-27T21:13:24.988Z,5.37
2019-03-27T21:16:16.703Z,7.42
2019-03-27T21:19:00.748Z,6.37
2019-03-27T21:21:52.249Z,7.70
2019-03-27T21:24:36.104Z,8.13
2019-03-27T21:27:28.768Z,8.20
2019-03-27T21:30:12.919Z,6.80
2019-03-27T21:33:04.625Z,7.10
2019-03-27T21:35:49.820Z,6.08
2019-03-27T21:38:41.459Z,7.80
2019-03-27T21:41:25.926Z,7.33
2019-03-27T21:44:17.530Z,6.12
2019-03-27T21:47:01.391Z,11.18
2019-03-27T21:49:53.078Z,8.35
2019-03-27T21:52:36.733Z,7.60
2019-03-27T21:55:22.897Z,7.55
2019-03-27T21:58:14.039Z,6.92
2019-03-27T22:00:58.691Z,7.12
2019-03-27T22:03:50.383Z,7.80
2019-03-27T22:06:34.561Z,8.43
2019-03-27T22:09:26.037Z,7.40
2019-03-27T22:12:09.711Z,6.85
2019-03-27T22:14:42.893Z,7.87
2019-03-27T22:17:27.058Z,7.75
2019-03-27T22:20:18.821Z,7.78
2019-03-27T22:23:02.559Z,6.95
2019-03-27T22:25:54.174Z,7.75
2019-03-27T22:28:39.275Z,8.03
2019-03-27T22:31:23.893Z,7.22
2019-03-27T22:34:09.353Z,6.85
2019-03-27T22:37:01.200Z,7.03
2019-03-27T22:39:45.392Z,7.78
2019-03-27T22:42:36.994Z,7.20
2019-03-27T22:45:23.379Z,7.08
2019-03-27T22:48:06.975Z,8.55
2019-03-27T22:50:59.068Z,7.03
2019-03-27T22:53:43.259Z,6.75
2019-03-27T22:56:35.919Z,7.00
2019-03-27T22:59:21.196Z,7.72
2019-03-27T23:02:13.258Z,8.48
2019-03-27T23:04:57.663Z,8.03
2019-03-27T23:07:49.318Z,8.38
2019-03-27T23:10:33.038Z,10.40
2019-03-27T23:13:17.311Z,10.35
2019-03-27T23:16:09.934Z,8.33
2019-03-27T23:18:54.172Z,9.38
2019-03-27T23:21:46.154Z,8.73
2019-03-27T23:24:30.082Z,8.70
2019-03-27T23:27:21.729Z,8.20
2019-03-27T23:30:07.103Z,8.53
2019-03-27T23:32:58.939Z,9.28
2019-03-27T23:35:44.113Z,9.15
2019-03-27T23:38:36.058Z,8.08
2019-03-27T23:41:20.406Z,9.23
2019-03-27T23:44:12.038Z,8.35
2019-03-27T23:46:57.676Z,8.10
2019-03-27T23:49:42.040Z,8.55
2019-03-27T23:52:25.580Z,7.60
2019-03-27T23:55:17.272Z,8.08
2019-03-27T23:57:50.148Z,8.70
